createdAt,value
2022-11-03T00:02:12.036Z,16.10
2022-11-03T00:04:39.806Z,18.05
2022-11-03T00:07:07.136Z,18.35
2022-11-03T00:09:34.444Z,17.62
2022-11-03T00:12:02.100Z,22.77
2022-11-03T00:14:29.422Z,20.58
2022-11-03T00:16:56.766Z,21.95
2022-11-03T00:19:24.342Z,20.30
2022-11-03T00:21:52.703Z,20.95
2022-11-03T00:24:20.030Z,19.67
2022-11-03T00:26:47.650Z,20.35
2022-11-03T00:29:15.181Z,19.92
2022-11-03T00:31:44.034Z,20.58
2022-11-03T00:34:11.655Z,20.55
2022-11-03T00:36:42.963Z,20.33
2022-11-03T00:39:10.578Z,21.92
2022-11-03T00:41:38.301Z,22.10
2022-11-03T00:44:05.753Z,18.73
2022-11-03T00:46:35.618Z,20.02
2022-11-03T00:49:04.275Z,16.87
2022-11-03T00:51:31.878Z,17.65
2022-11-03T00:54:00.255Z,18.30
2022-11-03T00:56:29.285Z,19.80
2022-11-03T00:58:57.928Z,19.67
2022-11-03T01:01:32.445Z,17.90
2022-11-03T01:04:18.839Z,17.45
2022-11-03T01:06:50.145Z,16.87
2022-11-03T01:09:17.797Z,16.70
2022-11-03T01:11:58.736Z,22.65
2022-11-03T01:14:37.422Z,16.67
2022-11-03T01:17:06.345Z,16.33
2022-11-03T01:19:34.011Z,16.67
2022-11-03T01:22:02.664Z,15.77
2022-11-03T01:24:32.427Z,13.30
2022-11-03T01:27:00.029Z,14.85
2022-11-03T01:29:27.358Z,14.75
2022-11-03T01:31:54.724Z,13.73
2022-11-03T01:34:22.804Z,17.12
2022-11-03T01:36:50.135Z,15.63
2022-11-03T01:39:18.633Z,13.25
2022-11-03T01:41:47.643Z,9.80
2022-11-03T01:44:14.794Z,10.60
2022-11-03T01:47:14.780Z,12.93
2022-11-03T01:50:09.783Z,10.77
2022-11-03T01:52:39.441Z,16.50
2022-11-03T01:55:13.327Z,12.52
2022-11-03T01:57:53.068Z,13.40
2022-11-03T02:00:20.815Z,14.07
2022-11-03T02:02:48.404Z,12.63
2022-11-03T02:05:18.529Z,11.45
2022-11-03T02:07:57.914Z,10.38
2022-11-03T02:10:25.659Z,12.80
2022-11-03T02:12:53.023Z,12.07
2022-11-03T02:15:21.679Z,13.10
2022-11-03T02:17:50.006Z,11.12
2022-11-03T02:20:21.631Z,9.93
2022-11-03T02:23:15.510Z,10.45
2022-11-03T02:25:46.989Z,18.48
2022-11-03T02:28:22.433Z,16.52
2022-11-03T02:30:49.598Z,13.38
2022-11-03T02:33:31.052Z,11.52
2022-11-03T02:36:12.398Z,8.82
2022-11-03T02:38:45.289Z,7.28
2022-11-03T02:41:12.635Z,11.00
2022-11-03T02:43:40.290Z,13.50
2022-11-03T02:46:07.610Z,8.95
2022-11-03T02:48:34.924Z,11.38
2022-11-03T02:51:03.404Z,11.60
2022-11-03T02:53:30.733Z,9.55
2022-11-03T02:56:02.042Z,12.13
2022-11-03T02:58:37.356Z,9.68
2022-11-03T03:01:15.048Z,11.10
2022-11-03T03:03:48.104Z,8.18
2022-11-03T03:06:35.130Z,9.63
2022-11-03T03:09:17.190Z,7.78
2022-11-03T03:11:44.511Z,10.57
2022-11-03T03:14:47.828Z,11.07
2022-11-03T03:17:45.164Z,10.82
2022-11-03T03:20:19.501Z,12.57
2022-11-03T03:22:56.765Z,8.73
2022-11-03T03:25:27.187Z,8.45
2022-11-03T03:27:58.538Z,10.93
2022-11-03T03:30:26.144Z,13.60
2022-11-03T03:32:53.521Z,8.75
2022-11-03T03:35:25.758Z,10.98
2022-11-03T03:37:54.547Z,8.82
2022-11-03T03:40:25.037Z,7.43
2022-11-03T03:42:52.690Z,9.88
2022-11-03T03:45:20.388Z,13.68
2022-11-03T03:47:47.807Z,9.85
2022-11-03T03:50:15.403Z,9.20
2022-11-03T03:52:42.731Z,8.07
2022-11-03T03:55:18.363Z,9.93
2022-11-03T03:57:46.035Z,12.25
2022-11-03T04:00:14.109Z,14.73
2022-11-03T04:02:42.243Z,7.60
2022-11-03T04:05:09.564Z,10.93
2022-11-03T04:07:49.143Z,11.75
2022-11-03T04:10:17.001Z,10.48
2022-11-03T04:13:03.191Z,11.30
2022-11-03T04:15:49.231Z,14.30
2022-11-03T04:18:36.186Z,11.82
2022-11-03T04:21:22.508Z,10.07
2022-11-03T04:23:49.827Z,9.88
2022-11-03T04:26:18.556Z,12.37
2022-11-03T04:28:45.917Z,11.65
2022-11-03T04:31:13.787Z,7.47
2022-11-03T04:33:41.778Z,8.88
2022-11-03T04:36:23.052Z,9.90
2022-11-03T04:38:51.238Z,12.18
2022-11-03T04:41:23.589Z,18.98
2022-11-03T04:43:52.146Z,52.55
2022-11-03T04:46:26.260Z,74.28
2022-11-03T04:48:54.544Z,25.00
2022-11-03T04:51:25.234Z,23.45
2022-11-03T04:53:59.003Z,14.60
2022-11-03T04:56:26.681Z,12.48
2022-11-03T04:58:54.127Z,18.50
2022-11-03T05:01:24.332Z,14.18
2022-11-03T05:03:56.596Z,13.45
2022-11-03T05:06:28.360Z,12.60
2022-11-03T05:08:58.637Z,11.85
2022-11-03T05:11:32.733Z,9.88
2022-11-03T05:14:01.680Z,13.48
2022-11-03T05:16:29.093Z,11.30
2022-11-03T05:18:56.427Z,12.15
2022-11-03T05:21:25.106Z,11.60
2022-11-03T05:24:03.145Z,13.40
2022-11-03T05:26:32.980Z,10.07
2022-11-03T05:29:06.006Z,10.50
2022-11-03T05:31:34.657Z,11.30
2022-11-03T05:34:02.841Z,11.98
2022-11-03T05:36:30.844Z,13.25
2022-11-03T05:39:37.996Z,10.55
2022-11-03T05:42:23.560Z,12.00
2022-11-03T05:44:51.621Z,10.73
2022-11-03T05:47:46.700Z,10.23
2022-11-03T05:50:19.702Z,9.20
2022-11-03T05:52:48.790Z,9.70
2022-11-03T05:55:24.191Z,8.95
2022-11-03T05:57:51.900Z,8.07
2022-11-03T06:00:41.093Z,14.00
2022-11-03T06:03:19.901Z,12.18
2022-11-03T06:05:47.297Z,10.85
2022-11-03T06:08:18.338Z,10.85
2022-11-03T06:10:48.976Z,15.07
2022-11-03T06:13:17.051Z,10.50
2022-11-03T06:15:45.358Z,11.55
2022-11-03T06:18:22.318Z,11.18
2022-11-03T06:20:55.164Z,13.52
2022-11-03T06:23:22.530Z,12.20
2022-11-03T06:25:51.794Z,16.12
2022-11-03T06:28:37.035Z,12.50
2022-11-03T06:33:36.375Z,13.23
2022-11-03T06:36:11.556Z,17.23
2022-11-03T06:38:39.143Z,12.93
2022-11-03T06:41:13.885Z,13.35
2022-11-03T06:43:41.878Z,12.32
2022-11-03T06:46:23.926Z,13.10
2022-11-03T06:49:01.496Z,8.10
2022-11-03T06:51:29.548Z,11.60
2022-11-03T06:54:00.455Z,10.88
2022-11-03T06:56:31.962Z,13.05
2022-11-03T06:58:59.595Z,10.25
2022-11-03T07:01:33.673Z,9.50
2022-11-03T07:04:03.024Z,15.63
2022-11-03T07:06:31.995Z,12.18
2022-11-03T07:08:59.873Z,13.88
2022-11-03T07:11:28.804Z,10.77
2022-11-03T07:13:57.588Z,8.10
2022-11-03T07:16:40.786Z,12.50
2022-11-03T07:19:19.844Z,13.27
2022-11-03T07:21:52.831Z,19.73
2022-11-03T07:24:30.125Z,12.57
2022-11-03T07:27:08.173Z,15.02
2022-11-03T07:29:35.833Z,16.37
2022-11-03T07:32:09.047Z,17.98
2022-11-03T07:34:36.657Z,18.12
2022-11-03T07:37:04.130Z,14.98
2022-11-03T07:39:34.721Z,17.70
2022-11-03T07:42:13.903Z,25.05
2022-11-03T07:44:41.272Z,17.23
2022-11-03T07:47:18.968Z,22.05
2022-11-03T07:49:46.399Z,25.88
2022-11-03T07:52:19.863Z,47.67
2022-11-03T07:54:47.191Z,28.02
2022-11-03T07:57:30.632Z,32.45
2022-11-03T08:00:10.217Z,28.00
2022-11-03T08:02:43.958Z,31.42
2022-11-03T08:05:11.652Z,35.80
2022-11-03T08:07:39.043Z,29.33
2022-11-03T08:10:07.381Z,33.53
2022-11-03T08:12:34.986Z,35.00
2022-11-03T08:15:02.301Z,36.92
2022-11-03T08:17:30.425Z,34.17
2022-11-03T08:19:58.078Z,31.10
2022-11-03T08:22:26.069Z,38.88
2022-11-03T08:24:53.415Z,34.83
2022-11-03T08:27:21.058Z,31.27
2022-11-03T08:29:48.516Z,34.83
2022-11-03T08:32:15.840Z,40.03
2022-11-03T08:34:43.429Z,31.77
2022-11-03T08:37:10.757Z,37.15
2022-11-03T08:39:38.066Z,34.22
2022-11-03T08:42:05.685Z,30.17
2022-11-03T08:44:33.054Z,35.60
2022-11-03T08:47:00.438Z,30.48
2022-11-03T08:49:28.047Z,34.88
2022-11-03T08:51:55.353Z,33.38
2022-11-03T08:54:22.731Z,34.75
2022-11-03T08:56:50.307Z,35.63
2022-11-03T08:59:18.227Z,32.05
2022-11-03T09:01:45.652Z,34.30
2022-11-03T09:04:13.344Z,36.47
2022-11-03T09:06:41.295Z,39.35
2022-11-03T09:11:56.206Z,38.83
2022-11-03T09:14:23.571Z,36.63
2022-11-03T09:16:50.967Z,37.45
2022-11-03T09:19:18.614Z,38.35
2022-11-03T09:21:45.976Z,29.90
2022-11-03T09:24:13.442Z,31.62
2022-11-03T09:26:41.039Z,33.38
2022-11-03T09:29:08.415Z,32.65
2022-11-03T09:31:35.736Z,30.05
2022-11-03T09:34:03.364Z,31.45
2022-11-03T09:36:30.701Z,35.55
2022-11-03T09:38:58.341Z,30.30
2022-11-03T09:41:36.260Z,37.55
2022-11-03T09:44:13.456Z,33.00
2022-11-03T09:46:41.121Z,39.28
2022-11-03T09:49:08.443Z,34.55
2022-11-03T09:51:36.248Z,35.28
2022-11-03T09:54:04.697Z,37.30
2022-11-03T09:56:32.369Z,40.60
2022-11-03T09:59:00.712Z,40.47
2022-11-03T10:01:28.482Z,39.30
2022-11-03T10:04:00.511Z,38.88
2022-11-03T10:06:27.834Z,39.42
2022-11-03T10:08:55.221Z,36.05
2022-11-03T10:11:22.867Z,36.17
2022-11-03T10:13:52.955Z,40.33
2022-11-03T10:16:21.368Z,34.92
2022-11-03T10:18:49.004Z,47.70
2022-11-03T10:21:27.517Z,40.00
2022-11-03T10:23:55.228Z,40.05
2022-11-03T10:26:22.728Z,40.75
2022-11-03T10:29:00.212Z,38.42
2022-11-03T10:31:38.611Z,38.13
2022-11-03T10:34:37.536Z,38.08
2022-11-03T10:37:24.392Z,48.13
2022-11-03T10:39:55.869Z,37.85
2022-11-03T10:42:25.822Z,37.97
2022-11-03T10:45:09.373Z,39.25
2022-11-03T10:47:37.045Z,41.03
2022-11-03T10:50:26.943Z,40.12
2022-11-03T10:52:54.691Z,41.80
2022-11-03T10:55:25.225Z,42.60
2022-11-03T10:57:55.452Z,41.92
2022-11-03T11:00:24.194Z,47.85
2022-11-03T11:02:56.758Z,43.95
2022-11-03T11:05:24.444Z,42.35
2022-11-03T11:07:52.688Z,47.85
2022-11-03T11:10:24.470Z,40.47
2022-11-03T11:13:25.804Z,41.33
2022-11-03T11:16:02.371Z,46.83
2022-11-03T11:18:30.100Z,49.13
2022-11-03T11:21:21.078Z,44.10
2022-11-03T11:23:49.163Z,45.78
2022-11-03T11:26:20.271Z,45.65
2022-11-03T11:29:10.339Z,42.75
2022-11-03T11:31:44.625Z,43.20
2022-11-03T11:34:21.470Z,39.65
2022-11-03T11:36:55.146Z,48.67
2022-11-03T11:39:28.245Z,43.92
2022-11-03T11:42:08.140Z,44.97
2022-11-03T11:44:52.859Z,53.60
2022-11-03T11:47:27.520Z,48.42
2022-11-03T11:50:13.363Z,49.15
2022-11-03T11:52:58.140Z,47.88
2022-11-03T11:55:27.015Z,43.63
2022-11-03T11:57:54.892Z,41.05
2022-11-03T12:00:26.106Z,43.90
2022-11-03T12:02:53.884Z,53.25
2022-11-03T12:05:34.136Z,42.67
2022-11-03T12:08:01.759Z,40.38
2022-11-03T12:10:31.184Z,43.13
2022-11-03T12:12:59.614Z,39.30
2022-11-03T12:15:51.180Z,42.70
2022-11-03T12:18:41.686Z,47.38
2022-11-03T12:21:14.586Z,40.92
2022-11-03T12:23:46.046Z,42.83
2022-11-03T12:26:29.365Z,48.53
2022-11-03T12:28:56.725Z,40.42
2022-11-03T12:31:24.412Z,44.55
2022-11-03T12:33:51.764Z,44.38
2022-11-03T12:36:19.135Z,46.58
2022-11-03T12:38:46.776Z,43.50
2022-11-03T12:41:24.664Z,40.80
2022-11-03T12:43:53.328Z,47.03
2022-11-03T12:46:21.362Z,40.22
2022-11-03T12:48:49.095Z,55.95
2022-11-03T12:51:20.755Z,43.38
2022-11-03T12:53:48.144Z,45.60
2022-11-03T12:56:15.903Z,47.78
2022-11-03T12:58:43.528Z,49.17
2022-11-03T13:01:11.123Z,51.05
2022-11-03T13:03:38.755Z,48.53
2022-11-03T13:06:10.004Z,45.97
2022-11-03T13:08:37.693Z,44.85
2022-11-03T13:11:25.003Z,50.72
2022-11-03T13:13:53.030Z,48.05
2022-11-03T13:16:20.473Z,46.80
2022-11-03T13:18:47.926Z,45.78
2022-11-03T13:21:15.638Z,42.15
2022-11-03T13:23:43.064Z,40.38
2022-11-03T13:26:10.916Z,45.90
2022-11-03T13:28:38.608Z,46.97
2022-11-03T13:31:06.283Z,44.65
2022-11-03T13:33:33.645Z,48.50
2022-11-03T13:36:01.592Z,45.70
2022-11-03T13:38:29.393Z,48.03
2022-11-03T13:41:01.121Z,46.25
2022-11-03T13:43:33.157Z,45.65
2022-11-03T13:46:02.592Z,41.30
2022-11-03T13:51:19.028Z,48.10
2022-11-03T13:59:28.357Z,44.80
2022-11-03T14:04:44.906Z,42.08
2022-11-03T14:07:12.523Z,41.30
2022-11-03T14:09:39.924Z,44.20
2022-11-03T14:12:26.178Z,47.38
2022-11-03T14:14:53.553Z,47.13
2022-11-03T14:17:21.135Z,37.58
2022-11-03T14:19:52.480Z,39.75
2022-11-03T14:22:21.225Z,42.38
2022-11-03T14:24:48.724Z,46.13
2022-11-03T14:27:16.341Z,42.40
2022-11-03T14:29:44.214Z,40.63
2022-11-03T14:32:11.933Z,36.70
2022-11-03T14:34:39.410Z,41.45
2022-11-03T14:37:08.873Z,41.97
2022-11-03T14:39:39.537Z,42.15
2022-11-03T14:42:11.715Z,37.42
2022-11-03T14:44:39.405Z,35.92
2022-11-03T14:47:12.700Z,35.10
2022-11-03T14:49:40.173Z,37.17
2022-11-03T14:52:07.864Z,38.10
2022-11-03T14:54:36.043Z,50.12
2022-11-03T14:57:03.974Z,38.20
2022-11-03T14:59:31.758Z,40.75
2022-11-03T15:01:59.365Z,37.72
2022-11-03T15:04:26.899Z,36.17
2022-11-03T15:06:54.555Z,34.63
2022-11-03T15:09:22.000Z,33.38
2022-11-03T15:11:49.390Z,37.60
2022-11-03T15:14:17.042Z,38.60
2022-11-03T15:16:46.141Z,34.40
2022-11-03T15:19:13.769Z,36.75
2022-11-03T15:21:41.524Z,37.85
2022-11-03T15:26:56.536Z,39.78
2022-11-03T15:29:24.177Z,41.13
2022-11-03T15:31:51.782Z,38.55
2022-11-03T15:34:19.387Z,44.25
2022-11-03T15:36:46.775Z,38.72
2022-11-03T15:39:14.118Z,36.95
2022-11-03T15:41:41.763Z,36.85
2022-11-03T15:44:10.029Z,39.47
2022-11-03T15:46:37.352Z,37.63
2022-11-03T15:49:04.984Z,34.30
2022-11-03T15:51:32.308Z,37.28
2022-11-03T15:53:59.667Z,36.03
2022-11-03T15:56:27.478Z,32.80
2022-11-03T15:58:54.933Z,36.70
2022-11-03T16:01:22.517Z,37.83
2022-11-03T16:03:50.275Z,33.17
2022-11-03T16:06:17.616Z,34.70
2022-11-03T16:08:45.134Z,40.65
2022-11-03T16:11:12.792Z,43.53
2022-11-03T16:13:40.100Z,46.58
2022-11-03T16:16:07.550Z,46.83
2022-11-03T16:18:35.155Z,42.53
2022-11-03T16:21:02.477Z,39.30
2022-11-03T16:23:29.830Z,40.50
2022-11-03T16:25:57.491Z,42.78
2022-11-03T16:28:24.884Z,49.75
2022-11-03T16:30:54.520Z,44.15
2022-11-03T16:33:22.726Z,45.30
2022-11-03T16:35:50.083Z,49.00
2022-11-03T16:38:17.449Z,45.88
2022-11-03T16:40:45.024Z,43.03
2022-11-03T16:43:12.404Z,44.85
2022-11-03T16:45:39.753Z,42.85
2022-11-03T16:48:07.829Z,47.83
2022-11-03T16:50:35.340Z,44.60
2022-11-03T16:53:03.333Z,46.90
2022-11-03T16:55:30.937Z,51.78
2022-11-03T16:57:58.276Z,54.22
2022-11-03T17:00:26.160Z,45.97
2022-11-03T17:02:53.743Z,44.63
2022-11-03T17:05:21.870Z,47.03
2022-11-03T17:07:53.555Z,48.35
2022-11-03T17:10:22.526Z,55.92
2022-11-03T17:12:50.351Z,59.78
2022-11-03T17:15:17.678Z,54.20
2022-11-03T17:17:45.267Z,51.88
2022-11-03T17:20:12.808Z,54.67
2022-11-03T17:22:40.146Z,56.65
2022-11-03T17:25:09.487Z,52.55
2022-11-03T17:27:36.689Z,58.63
2022-11-03T17:30:06.007Z,58.15
2022-11-03T17:32:36.527Z,62.70
2022-11-03T17:35:04.810Z,56.03
2022-11-03T17:37:32.227Z,67.80
2022-11-03T17:39:59.988Z,60.20
2022-11-03T17:42:28.425Z,62.50
2022-11-03T17:44:56.621Z,62.40
2022-11-03T17:47:24.351Z,57.40
2022-11-03T17:49:51.717Z,56.83
2022-11-03T17:52:26.767Z,59.25
2022-11-03T17:54:57.060Z,66.82
2022-11-03T17:57:24.535Z,65.47
2022-11-03T17:59:53.828Z,62.50
2022-11-03T18:02:26.602Z,58.65
2022-11-03T18:05:24.328Z,64.25
2022-11-03T18:07:52.496Z,54.97
2022-11-03T18:10:30.381Z,65.80
2022-11-03T18:13:18.834Z,57.40
2022-11-03T18:15:54.135Z,50.40
2022-11-03T18:18:26.054Z,50.00
2022-11-03T18:20:53.960Z,56.45
2022-11-03T18:23:26.119Z,59.03
2022-11-03T18:25:53.834Z,55.03
2022-11-03T18:28:21.320Z,52.30
2022-11-03T18:30:49.672Z,55.70
2022-11-03T18:33:24.732Z,56.37
2022-11-03T18:35:53.188Z,58.00
2022-11-03T18:38:24.065Z,51.17
2022-11-03T18:40:51.440Z,51.05
2022-11-03T18:43:20.165Z,54.03
2022-11-03T18:45:47.855Z,52.83
2022-11-03T18:48:19.460Z,52.10
2022-11-03T18:50:53.206Z,52.38
2022-11-03T18:53:24.487Z,52.05
2022-11-03T18:55:52.040Z,53.40
2022-11-03T18:58:24.488Z,50.53
2022-11-03T19:00:55.497Z,48.97
2022-11-03T19:03:23.239Z,49.50
2022-11-03T19:05:51.641Z,50.95
2022-11-03T19:08:21.426Z,52.22
2022-11-03T19:10:48.878Z,54.08
2022-11-03T19:13:28.543Z,54.60
2022-11-03T19:15:56.853Z,53.38
2022-11-03T19:18:24.888Z,60.60
2022-11-03T19:20:52.208Z,58.83
2022-11-03T19:23:19.800Z,56.13
2022-11-03T19:25:47.157Z,57.70
2022-11-03T19:28:14.786Z,61.30
2022-11-03T19:30:42.452Z,58.50
2022-11-03T19:33:16.806Z,58.55
2022-11-03T19:35:44.398Z,60.38
2022-11-03T19:38:13.756Z,56.58
2022-11-03T19:41:01.122Z,58.08
2022-11-03T19:43:34.224Z,53.22
2022-11-03T19:46:02.184Z,52.53
2022-11-03T19:48:31.980Z,57.60
2022-11-03T19:50:59.580Z,55.17
2022-11-03T19:53:28.059Z,58.90
2022-11-03T19:55:55.825Z,46.97
2022-11-03T19:58:24.765Z,59.42
2022-11-03T20:00:53.314Z,56.10
2022-11-03T20:03:22.170Z,59.85
2022-11-03T20:05:51.963Z,59.75
2022-11-03T20:08:22.195Z,57.53
2022-11-03T20:10:49.945Z,60.80
2022-11-03T20:13:19.251Z,61.35
2022-11-03T20:15:46.838Z,52.35
2022-11-03T20:18:14.640Z,51.55
2022-11-03T20:20:42.866Z,49.20
2022-11-03T20:23:22.169Z,55.45
2022-11-03T20:25:49.771Z,52.60
2022-11-03T20:28:22.024Z,52.30
2022-11-03T20:30:49.775Z,51.30
2022-11-03T20:33:18.246Z,53.08
2022-11-03T20:35:45.771Z,46.75
2022-11-03T20:38:14.363Z,58.38
2022-11-03T20:40:41.750Z,52.95
2022-11-03T20:43:26.900Z,49.47
2022-11-03T20:45:54.892Z,51.60
2022-11-03T20:48:22.537Z,53.13
2022-11-03T20:50:50.180Z,52.55
2022-11-03T20:53:19.077Z,44.85
2022-11-03T20:55:46.544Z,48.47
2022-11-03T20:58:16.019Z,42.50
2022-11-03T21:00:44.321Z,49.15
2022-11-03T21:03:38.014Z,54.90
2022-11-03T21:06:10.958Z,47.25
2022-11-03T21:08:38.376Z,41.03
2022-11-03T21:11:28.492Z,50.70
2022-11-03T21:13:57.095Z,40.42
2022-11-03T21:16:43.367Z,48.83
2022-11-03T21:19:49.934Z,53.40
2022-11-03T21:22:46.185Z,50.78
2022-11-03T21:25:13.828Z,52.80
2022-11-03T21:27:42.139Z,41.65
2022-11-03T21:30:14.056Z,52.47
2022-11-03T21:32:41.609Z,44.10
2022-11-03T21:35:14.547Z,52.83
2022-11-03T21:37:42.145Z,44.58
2022-11-03T21:40:10.292Z,49.17
2022-11-03T21:42:56.214Z,42.90
2022-11-03T21:45:23.831Z,46.10
2022-11-03T21:48:13.605Z,42.20
2022-11-03T21:50:42.441Z,40.28
2022-11-03T21:53:10.319Z,42.22
2022-11-03T21:55:38.028Z,49.35
2022-11-03T21:58:05.649Z,40.83
2022-11-03T22:00:32.967Z,41.88
2022-11-03T22:03:00.850Z,46.00
2022-11-03T22:05:28.183Z,47.67
2022-11-03T22:07:55.517Z,50.55
2022-11-03T22:10:23.172Z,47.13
2022-11-03T22:12:50.506Z,40.75
2022-11-03T22:15:36.720Z,41.05
2022-11-03T22:18:05.633Z,47.00
2022-11-03T22:20:52.119Z,41.05
2022-11-03T22:26:23.766Z,45.28
2022-11-03T22:29:11.307Z,42.08
2022-11-03T22:31:41.420Z,43.38
2022-11-03T22:34:27.667Z,40.20
2022-11-03T22:36:55.008Z,47.28
2022-11-03T22:39:41.575Z,44.97
2022-11-03T22:42:31.648Z,48.20
2022-11-03T22:45:18.165Z,43.30
2022-11-03T22:47:45.466Z,43.63
2022-11-03T22:50:13.061Z,40.50
2022-11-03T22:52:40.431Z,40.17
2022-11-03T22:55:07.743Z,43.13
2022-11-03T22:57:35.322Z,42.85
2022-11-03T23:00:05.517Z,41.63
2022-11-03T23:02:32.925Z,43.45
2022-11-03T23:05:00.543Z,38.63
2022-11-03T23:07:32.324Z,42.42
2022-11-03T23:10:04.656Z,41.55
2022-11-03T23:12:32.315Z,43.00
2022-11-03T23:15:18.612Z,37.90
2022-11-03T23:18:04.986Z,42.30
2022-11-03T23:20:50.812Z,41.72
2022-11-03T23:23:37.267Z,33.88
2022-11-03T23:26:04.597Z,43.05
2022-11-03T23:28:32.161Z,41.20
2022-11-03T23:30:59.496Z,39.75
2022-11-03T23:33:26.836Z,36.33
2022-11-03T23:35:54.418Z,37.47
2022-11-03T23:38:21.790Z,33.72
2022-11-03T23:40:49.092Z,34.38
2022-11-03T23:43:16.662Z,38.40
2022-11-03T23:46:02.731Z,35.75
2022-11-03T23:51:19.672Z,37.65
2022-11-03T23:53:47.258Z,37.58
2022-11-03T23:56:33.936Z,37.75
2022-11-03T23:59:01.596Z,37.33
